createdAt,value
2017-11-24T00:00:05.398Z,0.00
2017-11-24T00:01:05.420Z,0.00
2017-11-24T00:02:05.440Z,0.00
2017-11-24T00:03:05.459Z,0.00
2017-11-24T00:04:05.485Z,0.00
2017-11-24T00:05:05.507Z,0.00
2017-11-24T00:06:05.521Z,0.00
2017-11-24T00:07:05.539Z,0.00
2017-11-24T00:08:05.808Z,0.00
2017-11-24T00:09:05.580Z,0.00
2017-11-24T00:10:05.600Z,0.00
2017-11-24T00:11:05.621Z,0.00
2017-11-24T00:12:05.629Z,0.00
2017-11-24T00:13:05.953Z,0.00
2017-11-24T00:14:05.676Z,0.00
2017-11-24T00:15:05.696Z,0.00
2017-11-24T00:16:05.714Z,0.00
2017-11-24T00:17:05.726Z,0.00
2017-11-24T00:18:05.748Z,0.00
2017-11-24T00:19:05.770Z,0.00
2017-11-24T00:20:05.791Z,0.00
2017-11-24T00:21:05.812Z,0.00
2017-11-24T00:22:05.820Z,0.00
2017-11-24T00:23:06.092Z,0.00
2017-11-24T00:24:05.875Z,0.00
2017-11-24T00:25:05.888Z,0.00
2017-11-24T00:26:05.892Z,0.00
2017-11-24T00:27:05.916Z,0.00
2017-11-24T00:28:06.238Z,0.00
2017-11-24T00:29:05.949Z,0.00
2017-11-24T00:30:05.974Z,0.00
2017-11-24T00:31:05.990Z,0.00
2017-11-24T00:32:06.000Z,0.00
2017-11-24T00:33:06.026Z,0.00
2017-11-24T00:34:06.057Z,0.00
2017-11-24T00:35:06.058Z,0.00
2017-11-24T00:36:06.085Z,0.00
2017-11-24T00:37:06.097Z,0.00
2017-11-24T00:38:06.430Z,0.00
2017-11-24T00:39:06.132Z,0.00
2017-11-24T00:40:06.151Z,0.00
2017-11-24T00:41:06.187Z,0.00
2017-11-24T00:42:06.206Z,0.00
2017-11-24T00:43:06.459Z,0.00
2017-11-24T00:44:06.231Z,0.00
2017-11-24T00:45:06.244Z,0.00
2017-11-24T00:46:06.268Z,0.00
2017-11-24T00:47:06.290Z,0.00
2017-11-24T00:48:06.299Z,0.00
2017-11-24T00:49:06.319Z,0.00
2017-11-24T00:50:06.342Z,0.00
2017-11-24T00:51:06.365Z,0.00
2017-11-24T00:52:06.384Z,0.00
2017-11-24T00:53:06.392Z,0.00
2017-11-24T00:54:06.420Z,0.00
2017-11-24T00:55:06.440Z,0.00
2017-11-24T00:56:06.447Z,0.00
2017-11-24T00:57:06.471Z,0.00
2017-11-24T00:58:06.487Z,0.00
2017-11-24T00:59:06.519Z,0.00
2017-11-24T01:00:06.524Z,0.00
2017-11-24T01:01:06.540Z,0.00
2017-11-24T01:02:06.567Z,0.00
2017-11-24T01:03:06.580Z,0.00
2017-11-24T01:04:06.593Z,0.00
2017-11-24T01:05:06.622Z,0.00
2017-11-24T01:06:06.640Z,0.00
2017-11-24T01:07:06.660Z,0.00
2017-11-24T01:08:06.968Z,0.00
2017-11-24T01:09:06.691Z,0.00
2017-11-24T01:10:06.701Z,0.00
2017-11-24T01:11:06.728Z,0.00
2017-11-24T01:12:06.744Z,0.00
2017-11-24T01:13:06.772Z,0.00
2017-11-24T01:14:06.781Z,0.00
2017-11-24T01:15:06.801Z,0.00
2017-11-24T01:16:06.808Z,0.00
2017-11-24T01:17:06.835Z,0.00
2017-11-24T01:18:07.106Z,0.00
2017-11-24T01:19:06.875Z,0.00
2017-11-24T01:20:06.904Z,0.00
2017-11-24T01:21:06.898Z,0.00
2017-11-24T01:22:06.933Z,0.00
2017-11-24T01:23:06.951Z,0.00
2017-11-24T01:24:06.972Z,0.00
2017-11-24T01:25:06.977Z,0.00
2017-11-24T01:26:07.000Z,0.00
2017-11-24T01:27:07.017Z,0.00
2017-11-24T01:28:07.041Z,0.00
2017-11-24T01:29:07.054Z,0.00
2017-11-24T01:30:07.087Z,0.00
2017-11-24T01:31:07.095Z,0.00
2017-11-24T01:32:07.108Z,0.00
2017-11-24T01:33:07.138Z,0.00
2017-11-24T01:34:07.140Z,0.00
2017-11-24T01:35:07.163Z,0.00
2017-11-24T01:36:07.193Z,0.00
2017-11-24T01:37:07.205Z,0.00
2017-11-24T01:38:07.470Z,0.00
2017-11-24T01:39:07.240Z,0.00
2017-11-24T01:40:07.262Z,0.00
2017-11-24T01:41:07.280Z,0.00
2017-11-24T01:42:07.297Z,0.00
2017-11-24T01:43:07.308Z,0.00
2017-11-24T01:44:07.342Z,0.00
2017-11-24T01:45:07.352Z,0.00
2017-11-24T01:46:07.383Z,0.00
2017-11-24T01:47:07.391Z,0.00
2017-11-24T01:48:07.409Z,0.00
2017-11-24T01:49:07.427Z,0.00
2017-11-24T01:50:07.445Z,0.00
2017-11-24T01:51:07.465Z,0.00
2017-11-24T01:52:07.486Z,0.00
2017-11-24T01:53:07.504Z,0.00
2017-11-24T01:54:07.530Z,0.00
2017-11-24T01:55:07.551Z,0.00
2017-11-24T01:56:07.566Z,0.00
2017-11-24T01:57:07.580Z,0.00
2017-11-24T01:58:07.593Z,0.00
2017-11-24T01:59:07.613Z,0.00
2017-11-24T02:00:07.646Z,0.00
2017-11-24T02:01:07.653Z,0.00
2017-11-24T02:02:07.668Z,0.00
2017-11-24T02:03:07.688Z,0.00
2017-11-24T02:04:07.707Z,0.00
2017-11-24T02:05:07.733Z,0.00
2017-11-24T02:06:07.747Z,0.00
2017-11-24T02:07:07.760Z,0.00
2017-11-24T02:08:08.085Z,0.00
2017-11-24T02:09:07.799Z,0.00
2017-11-24T02:10:07.831Z,0.00
2017-11-24T02:11:07.836Z,0.00
2017-11-24T02:12:07.853Z,0.00
2017-11-24T02:13:07.880Z,0.00
2017-11-24T02:14:07.901Z,0.00
2017-11-24T02:15:07.923Z,0.00
2017-11-24T02:16:07.932Z,0.00
2017-11-24T02:17:07.946Z,0.00
2017-11-24T02:18:08.280Z,0.00
2017-11-24T02:19:08.003Z,0.00
2017-11-24T02:20:08.010Z,0.00
2017-11-24T02:21:08.027Z,0.00
2017-11-24T02:22:08.044Z,0.00
2017-11-24T02:23:08.071Z,0.00
2017-11-24T02:24:08.096Z,0.00
2017-11-24T02:25:08.112Z,0.00
2017-11-24T02:26:08.119Z,0.00
2017-11-24T02:27:08.142Z,0.00
2017-11-24T02:28:08.409Z,0.00
2017-11-24T02:29:08.192Z,0.00
2017-11-24T02:30:08.199Z,0.00
2017-11-24T02:31:08.209Z,0.00
2017-11-24T02:32:08.240Z,0.00
2017-11-24T02:33:08.253Z,0.00
2017-11-24T02:34:08.286Z,0.00
2017-11-24T02:35:08.300Z,0.00
2017-11-24T02:36:08.314Z,0.00
2017-11-24T02:37:08.330Z,0.00
2017-11-24T02:38:08.360Z,0.00
2017-11-24T02:39:08.375Z,0.00
2017-11-24T02:40:08.401Z,0.00
2017-11-24T02:41:08.404Z,0.00
2017-11-24T02:42:08.422Z,0.00
2017-11-24T02:43:08.452Z,0.00
2017-11-24T02:44:08.462Z,0.00
2017-11-24T02:45:08.494Z,0.00
2017-11-24T02:46:08.500Z,0.00
2017-11-24T02:47:08.515Z,0.00
2017-11-24T02:48:08.804Z,0.00
2017-11-24T02:49:08.563Z,0.00
2017-11-24T02:50:08.588Z,0.00
2017-11-24T02:51:08.590Z,0.00
2017-11-24T02:52:08.616Z,0.00
2017-11-24T02:53:08.643Z,0.00
2017-11-24T02:54:08.656Z,0.00
2017-11-24T02:55:08.681Z,0.00
2017-11-24T02:56:08.690Z,0.00
2017-11-24T02:57:08.710Z,0.00
2017-11-24T02:58:08.728Z,0.00
2017-11-24T02:59:08.756Z,0.00
2017-11-24T03:00:08.772Z,0.00
2017-11-24T03:01:08.779Z,0.00
2017-11-24T03:02:08.805Z,0.00
2017-11-24T03:03:09.074Z,0.00
2017-11-24T03:04:08.852Z,0.00
2017-11-24T03:05:08.864Z,0.00
2017-11-24T03:06:08.882Z,0.00
2017-11-24T03:07:08.904Z,0.00
2017-11-24T03:08:08.913Z,0.00
2017-11-24T03:09:08.937Z,0.00
2017-11-24T03:10:08.971Z,0.00
2017-11-24T03:11:08.964Z,0.00
2017-11-24T03:12:08.998Z,0.00
2017-11-24T03:13:09.017Z,0.00
2017-11-24T03:14:09.037Z,0.00
2017-11-24T03:15:09.056Z,0.00
2017-11-24T03:16:09.070Z,0.00
2017-11-24T03:17:09.089Z,0.00
2017-11-24T03:18:09.108Z,0.00
2017-11-24T03:19:09.136Z,0.00
2017-11-24T03:20:09.146Z,0.00
2017-11-24T03:21:09.157Z,0.00
2017-11-24T03:22:09.175Z,0.00
2017-11-24T03:23:09.447Z,0.00
2017-11-24T03:24:09.221Z,0.00
2017-11-24T03:25:09.241Z,0.00
2017-11-24T03:26:09.258Z,0.00
2017-11-24T03:27:09.282Z,0.00
2017-11-24T03:28:09.291Z,0.00
2017-11-24T03:29:09.322Z,0.00
2017-11-24T03:30:09.341Z,0.00
2017-11-24T03:31:09.346Z,0.00
2017-11-24T03:32:09.369Z,0.00
2017-11-24T03:33:09.393Z,0.00
2017-11-24T03:34:09.419Z,0.00
2017-11-24T03:35:09.430Z,0.00
2017-11-24T03:36:09.445Z,0.00
2017-11-24T03:37:09.471Z,0.00
2017-11-24T03:38:09.782Z,0.00
2017-11-24T03:39:09.503Z,0.00
2017-11-24T03:40:09.533Z,0.00
2017-11-24T03:41:09.536Z,0.00
2017-11-24T03:42:09.565Z,0.00
2017-11-24T03:43:09.584Z,0.00
2017-11-24T03:44:09.604Z,0.00
2017-11-24T03:45:09.619Z,0.00
2017-11-24T03:46:09.657Z,0.00
2017-11-24T03:47:09.647Z,0.00
2017-11-24T03:48:09.678Z,0.00
2017-11-24T03:49:09.693Z,0.00
2017-11-24T03:50:09.712Z,0.00
2017-11-24T03:51:09.736Z,0.00
2017-11-24T03:52:09.743Z,0.00
2017-11-24T03:53:10.016Z,0.00
2017-11-24T03:54:09.790Z,0.00
2017-11-24T03:55:09.801Z,0.00
2017-11-24T03:56:09.823Z,0.00
2017-11-24T03:57:09.841Z,0.00
2017-11-24T03:58:09.863Z,0.00
2017-11-24T03:59:09.886Z,0.00
2017-11-24T04:00:09.891Z,0.00
2017-11-24T04:01:09.919Z,0.00
2017-11-24T04:02:09.935Z,0.00
2017-11-24T04:03:09.958Z,0.00
2017-11-24T04:04:09.979Z,0.00
2017-11-24T04:05:09.994Z,0.00
2017-11-24T04:06:10.009Z,0.00
2017-11-24T04:07:10.029Z,0.00
2017-11-24T04:08:10.301Z,0.00
2017-11-24T04:09:10.085Z,0.00
2017-11-24T04:10:10.078Z,0.00
2017-11-24T04:11:10.101Z,0.00
2017-11-24T04:12:10.132Z,0.00
2017-11-24T04:13:10.450Z,0.00
2017-11-24T04:14:10.153Z,0.00
2017-11-24T04:15:10.173Z,0.00
2017-11-24T04:16:10.198Z,0.00
2017-11-24T04:17:10.221Z,0.00
2017-11-24T04:18:10.243Z,0.00
2017-11-24T04:19:10.249Z,0.00
2017-11-24T04:20:10.272Z,0.00
2017-11-24T04:21:10.286Z,0.00
2017-11-24T04:22:10.312Z,0.00
2017-11-24T04:23:10.329Z,0.00
2017-11-24T04:24:10.339Z,0.00
2017-11-24T04:25:10.369Z,0.00
2017-11-24T04:26:10.388Z,0.00
2017-11-24T04:27:10.409Z,0.00
2017-11-24T04:28:10.417Z,0.00
2017-11-24T04:29:10.434Z,0.00
2017-11-24T04:30:10.459Z,0.00
2017-11-24T04:31:10.480Z,0.00
2017-11-24T04:32:10.484Z,0.00
2017-11-24T04:33:10.819Z,0.00
2017-11-24T04:34:10.532Z,0.00
2017-11-24T04:35:10.558Z,0.00
2017-11-24T04:36:10.569Z,0.00
2017-11-24T04:37:10.584Z,0.00
2017-11-24T04:38:10.605Z,0.00
2017-11-24T04:39:10.628Z,0.00
2017-11-24T04:40:10.639Z,0.00
2017-11-24T04:41:10.656Z,0.00
2017-11-24T04:42:10.671Z,0.00
2017-11-24T04:43:10.954Z,0.00
2017-11-24T04:44:10.718Z,0.00
2017-11-24T04:45:10.730Z,0.00
2017-11-24T04:46:10.753Z,0.00
2017-11-24T04:47:10.776Z,0.00
2017-11-24T04:48:11.080Z,0.00
2017-11-24T04:49:10.803Z,0.00
2017-11-24T04:50:10.825Z,0.00
2017-11-24T04:51:10.838Z,0.00
2017-11-24T04:52:10.859Z,0.00
2017-11-24T04:53:10.879Z,0.00
2017-11-24T04:54:10.904Z,0.00
2017-11-24T04:55:10.913Z,0.00
2017-11-24T04:56:10.921Z,0.00
2017-11-24T04:57:10.949Z,0.00
2017-11-24T04:58:11.223Z,0.00
2017-11-24T04:59:10.982Z,0.00
2017-11-24T05:00:11.005Z,0.00
2017-11-24T05:01:11.018Z,0.00
2017-11-24T05:02:11.030Z,0.00
2017-11-24T05:03:11.352Z,0.00
2017-11-24T05:04:11.068Z,0.00
2017-11-24T05:05:11.099Z,0.00
2017-11-24T05:06:11.099Z,0.00
2017-11-24T05:07:11.120Z,0.00
2017-11-24T05:08:11.154Z,0.00
2017-11-24T05:09:11.166Z,0.00
2017-11-24T05:10:11.178Z,0.00
2017-11-24T05:11:11.199Z,0.00
2017-11-24T05:12:11.234Z,0.00
2017-11-24T05:13:11.230Z,0.00
2017-11-24T05:14:11.244Z,0.00
2017-11-24T05:15:11.274Z,0.00
2017-11-24T05:16:11.299Z,0.00
2017-11-24T05:17:11.297Z,0.00
2017-11-24T05:18:11.625Z,0.00
2017-11-24T05:19:11.344Z,0.00
2017-11-24T05:20:11.371Z,0.00
2017-11-24T05:21:11.376Z,0.00
2017-11-24T05:22:11.403Z,0.00
2017-11-24T05:23:11.424Z,0.00
2017-11-24T05:24:11.432Z,0.00
2017-11-24T05:25:11.459Z,0.00
2017-11-24T05:26:11.470Z,0.00
2017-11-24T05:27:11.494Z,0.00
2017-11-24T05:28:11.498Z,0.00
2017-11-24T05:29:11.517Z,0.00
2017-11-24T05:30:11.547Z,0.00
2017-11-24T05:31:11.564Z,0.00
2017-11-24T05:32:11.568Z,0.00
2017-11-24T05:33:11.593Z,0.00
2017-11-24T05:34:11.610Z,0.00
2017-11-24T05:35:11.619Z,0.00
2017-11-24T05:36:11.651Z,0.00
2017-11-24T05:37:11.670Z,0.00
2017-11-24T05:38:11.693Z,0.00
2017-11-24T05:39:11.715Z,0.00
2017-11-24T05:40:11.713Z,0.00
2017-11-24T05:41:11.740Z,0.00
2017-11-24T05:42:11.752Z,0.00
2017-11-24T05:43:12.022Z,0.00
2017-11-24T05:44:11.799Z,0.00
2017-11-24T05:45:11.817Z,0.00
2017-11-24T05:46:11.821Z,0.00
2017-11-24T05:47:11.851Z,0.00
2017-11-24T05:48:11.865Z,0.00
2017-11-24T05:49:11.875Z,0.00
2017-11-24T05:50:11.892Z,0.00
2017-11-24T05:51:11.918Z,0.00
2017-11-24T05:52:11.938Z,0.00
2017-11-24T05:53:11.942Z,0.00
2017-11-24T05:54:11.969Z,0.00
2017-11-24T05:55:11.990Z,0.00
2017-11-24T05:56:12.010Z,0.00
2017-11-24T05:57:12.021Z,0.00
2017-11-24T05:58:12.044Z,0.00
2017-11-24T05:59:12.057Z,0.00
2017-11-24T06:00:12.079Z,0.00
2017-11-24T06:01:12.094Z,0.00
2017-11-24T06:02:12.115Z,0.00
2017-11-24T06:03:12.136Z,0.00
2017-11-24T06:04:12.141Z,0.00
2017-11-24T06:05:12.181Z,0.00
2017-11-24T06:06:12.189Z,0.00
2017-11-24T06:07:12.205Z,0.00
2017-11-24T06:08:12.525Z,0.00
2017-11-24T06:09:12.234Z,0.00
2017-11-24T06:10:12.257Z,0.00
2017-11-24T06:11:12.285Z,0.00
2017-11-24T06:12:12.292Z,0.00
2017-11-24T06:13:12.313Z,0.00
2017-11-24T06:14:12.337Z,0.00
2017-11-24T06:15:12.346Z,0.00
2017-11-24T06:16:12.364Z,0.00
2017-11-24T06:17:12.379Z,0.00
2017-11-24T06:18:12.423Z,0.00
2017-11-24T06:19:12.415Z,0.00
2017-11-24T06:20:12.439Z,0.00
2017-11-24T06:21:12.471Z,0.00
2017-11-24T06:22:12.475Z,0.00
2017-11-24T06:23:12.489Z,0.00
2017-11-24T06:24:12.511Z,0.00
2017-11-24T06:25:12.526Z,0.00
2017-11-24T06:26:12.558Z,0.00
2017-11-24T06:27:12.560Z,0.00
2017-11-24T06:28:12.576Z,0.00
2017-11-24T06:29:12.611Z,0.00
2017-11-24T06:30:12.612Z,0.00
2017-11-24T06:31:12.636Z,0.00
2017-11-24T06:32:12.660Z,0.00
2017-11-24T06:33:12.670Z,0.00
2017-11-24T06:34:12.706Z,5.63
2017-11-24T06:35:12.711Z,5.63
2017-11-24T06:36:12.735Z,0.00
2017-11-24T06:37:12.755Z,0.00
2017-11-24T06:38:12.762Z,0.00
2017-11-24T06:39:12.786Z,5.63
2017-11-24T06:40:12.816Z,5.63
2017-11-24T06:41:12.826Z,5.63
2017-11-24T06:42:12.838Z,5.63
2017-11-24T06:43:12.856Z,5.63
2017-11-24T06:44:12.877Z,5.63
2017-11-24T06:45:12.895Z,11.25
2017-11-24T06:46:12.901Z,11.25
2017-11-24T06:47:12.927Z,5.63
2017-11-24T06:48:12.955Z,5.63
2017-11-24T06:49:12.971Z,5.63
2017-11-24T06:50:12.985Z,5.63
2017-11-24T06:51:13.006Z,5.63
2017-11-24T06:52:13.022Z,11.25
2017-11-24T06:53:13.040Z,11.25
2017-11-24T06:54:13.048Z,11.25
2017-11-24T06:55:13.069Z,16.88
2017-11-24T06:56:13.100Z,16.88
2017-11-24T06:57:13.110Z,16.88
2017-11-24T06:58:13.376Z,16.88
2017-11-24T06:59:13.145Z,22.50
2017-11-24T07:00:13.172Z,22.50
2017-11-24T07:01:13.189Z,22.50
2017-11-24T07:02:13.203Z,22.50
2017-11-24T07:03:13.218Z,22.50
2017-11-24T07:04:13.248Z,22.50
2017-11-24T07:05:13.265Z,22.50
2017-11-24T07:06:13.269Z,22.50
2017-11-24T07:07:13.306Z,22.50
2017-11-24T07:08:13.313Z,28.13
2017-11-24T07:09:13.340Z,33.75
2017-11-24T07:10:13.347Z,39.38
2017-11-24T07:11:13.362Z,45.00
2017-11-24T07:12:13.385Z,50.63
2017-11-24T07:13:13.409Z,56.25
2017-11-24T07:14:13.417Z,61.88
2017-11-24T07:15:13.443Z,61.88
2017-11-24T07:16:13.456Z,61.88
2017-11-24T07:17:13.480Z,67.50
2017-11-24T07:18:13.735Z,67.50
2017-11-24T07:19:13.513Z,67.50
2017-11-24T07:20:13.533Z,67.50
2017-11-24T07:21:13.557Z,67.50
2017-11-24T07:22:13.558Z,73.13
2017-11-24T07:23:13.589Z,78.75
2017-11-24T07:24:13.601Z,84.38
2017-11-24T07:25:13.636Z,90.00
2017-11-24T07:26:13.637Z,95.63
2017-11-24T07:27:13.652Z,106.88
2017-11-24T07:28:13.672Z,112.50
2017-11-24T07:29:13.695Z,112.50
2017-11-24T07:30:13.705Z,112.50
2017-11-24T07:31:13.725Z,106.88
2017-11-24T07:32:13.752Z,106.88
2017-11-24T07:33:13.774Z,106.88
2017-11-24T07:34:13.778Z,106.88
2017-11-24T07:35:13.810Z,101.25
2017-11-24T07:36:13.825Z,101.25
2017-11-24T07:37:13.846Z,101.25
2017-11-24T07:38:14.120Z,101.25
2017-11-24T07:39:13.882Z,95.63
2017-11-24T07:40:13.892Z,90.00
2017-11-24T07:41:13.914Z,84.38
2017-11-24T07:42:13.941Z,84.38
2017-11-24T07:43:13.952Z,90.00
2017-11-24T07:44:13.970Z,95.63
2017-11-24T07:45:13.992Z,95.63
2017-11-24T07:46:14.008Z,90.00
2017-11-24T07:47:14.039Z,90.00
2017-11-24T07:48:14.038Z,84.38
2017-11-24T07:49:14.068Z,78.75
2017-11-24T07:50:14.088Z,67.50
2017-11-24T07:51:14.103Z,67.50
2017-11-24T07:52:14.120Z,67.50
2017-11-24T07:53:14.393Z,73.13
2017-11-24T07:54:14.153Z,78.75
2017-11-24T07:55:14.181Z,84.38
2017-11-24T07:56:14.204Z,101.25
2017-11-24T07:57:14.213Z,112.50
2017-11-24T07:58:14.227Z,129.38
2017-11-24T07:59:14.250Z,135.00
2017-11-24T08:00:14.277Z,146.25
2017-11-24T08:01:14.298Z,163.13
2017-11-24T08:02:14.301Z,180.00
2017-11-24T08:03:14.572Z,196.88
2017-11-24T08:04:14.342Z,202.50
2017-11-24T08:05:14.364Z,208.13
2017-11-24T08:06:14.392Z,202.50
2017-11-24T08:07:14.400Z,196.88
2017-11-24T08:08:14.417Z,196.88
2017-11-24T08:09:14.439Z,196.88
2017-11-24T08:10:14.459Z,202.50
2017-11-24T08:11:14.488Z,196.88
2017-11-24T08:12:14.490Z,202.50
2017-11-24T08:13:14.516Z,219.38
2017-11-24T08:14:14.535Z,247.50
2017-11-24T08:15:14.555Z,281.25
2017-11-24T08:16:14.574Z,309.38
2017-11-24T08:17:14.591Z,286.88
2017-11-24T08:18:14.612Z,230.63
2017-11-24T08:19:14.627Z,196.88
2017-11-24T08:20:14.655Z,174.38
2017-11-24T08:21:14.669Z,168.75
2017-11-24T08:22:14.687Z,196.88
2017-11-24T08:23:14.699Z,213.75
2017-11-24T08:24:14.727Z,219.38
2017-11-24T08:25:14.749Z,225.00
2017-11-24T08:26:14.770Z,225.00
2017-11-24T08:27:14.798Z,225.00
2017-11-24T08:28:14.800Z,225.00
2017-11-24T08:29:14.816Z,225.00
2017-11-24T08:30:14.844Z,230.63
2017-11-24T08:31:14.866Z,230.63
2017-11-24T08:32:14.887Z,219.38
2017-11-24T08:33:14.901Z,219.38
2017-11-24T08:34:14.913Z,225.00
2017-11-24T08:35:14.931Z,236.25
2017-11-24T08:36:14.953Z,236.25
2017-11-24T08:37:14.973Z,225.00
2017-11-24T08:38:15.296Z,213.75
2017-11-24T08:39:15.017Z,213.75
2017-11-24T08:40:15.027Z,225.00
2017-11-24T08:41:15.048Z,247.50
2017-11-24T08:42:15.074Z,281.25
2017-11-24T08:43:15.340Z,286.88
2017-11-24T08:44:15.117Z,258.75
2017-11-24T08:45:15.145Z,208.13
2017-11-24T08:46:15.144Z,174.38
2017-11-24T08:47:15.169Z,151.88
2017-11-24T08:48:15.190Z,140.63
2017-11-24T08:49:15.205Z,129.38
2017-11-24T08:50:15.233Z,129.38
2017-11-24T08:51:15.254Z,129.38
2017-11-24T08:52:15.274Z,151.88
2017-11-24T08:53:15.280Z,157.50
2017-11-24T08:54:15.307Z,157.50
2017-11-24T08:55:15.329Z,151.88
2017-11-24T08:56:15.350Z,140.63
2017-11-24T08:57:15.364Z,112.50
2017-11-24T08:58:15.388Z,101.25
2017-11-24T08:59:15.402Z,118.13
2017-11-24T09:00:15.416Z,157.50
2017-11-24T09:01:15.437Z,191.25
2017-11-24T09:02:15.468Z,196.88
2017-11-24T09:03:15.736Z,180.00
2017-11-24T09:04:15.513Z,180.00
2017-11-24T09:05:15.536Z,185.63
2017-11-24T09:06:15.532Z,196.88
2017-11-24T09:07:15.561Z,202.50
2017-11-24T09:08:15.580Z,208.13
2017-11-24T09:09:15.603Z,213.75
2017-11-24T09:10:15.641Z,208.13
2017-11-24T09:11:15.639Z,196.88
2017-11-24T09:12:15.657Z,208.13
2017-11-24T09:13:15.675Z,236.25
2017-11-24T09:14:15.697Z,225.00
2017-11-24T09:15:15.719Z,213.75
2017-11-24T09:16:15.732Z,236.25
2017-11-24T09:17:15.757Z,258.75
2017-11-24T09:18:16.015Z,253.13
2017-11-24T09:19:15.790Z,230.63
2017-11-24T09:20:15.805Z,202.50
2017-11-24T09:21:15.828Z,208.13
2017-11-24T09:22:15.856Z,213.75
2017-11-24T09:23:15.876Z,213.75
2017-11-24T09:24:15.897Z,230.63
2017-11-24T09:25:15.902Z,247.50
2017-11-24T09:26:15.929Z,292.50
2017-11-24T09:27:15.961Z,326.25
2017-11-24T09:28:15.965Z,348.75
2017-11-24T09:29:15.986Z,360.00
2017-11-24T09:30:16.008Z,382.50
2017-11-24T09:31:16.023Z,388.13
2017-11-24T09:32:16.046Z,388.13
2017-11-24T09:33:16.065Z,388.13
2017-11-24T09:34:16.089Z,376.88
2017-11-24T09:35:16.113Z,382.50
2017-11-24T09:36:16.130Z,388.13
2017-11-24T09:37:16.151Z,393.75
2017-11-24T09:38:16.460Z,399.38
2017-11-24T09:39:16.181Z,343.13
2017-11-24T09:40:16.203Z,315.00
2017-11-24T09:41:16.225Z,286.88
2017-11-24T09:42:16.240Z,264.38
2017-11-24T09:43:16.266Z,264.38
2017-11-24T09:44:16.287Z,292.50
2017-11-24T09:45:16.310Z,320.63
2017-11-24T09:46:16.324Z,303.75
2017-11-24T09:47:16.344Z,309.38
2017-11-24T09:48:16.362Z,337.50
2017-11-24T09:49:16.380Z,315.00
2017-11-24T09:50:16.406Z,309.38
2017-11-24T09:51:16.419Z,298.13
2017-11-24T09:52:16.440Z,292.50
2017-11-24T09:53:16.467Z,286.88
2017-11-24T09:54:16.490Z,309.38
2017-11-24T09:55:16.512Z,286.88
2017-11-24T09:56:16.527Z,275.63
2017-11-24T09:57:16.542Z,264.38
2017-11-24T09:58:16.812Z,270.00
2017-11-24T09:59:16.589Z,326.25
2017-11-24T10:00:16.609Z,360.00
2017-11-24T10:01:16.626Z,421.88
2017-11-24T10:02:16.654Z,478.13
2017-11-24T10:03:16.670Z,523.13
2017-11-24T10:04:16.691Z,545.63
2017-11-24T10:05:16.712Z,495.00
2017-11-24T10:06:16.729Z,393.75
2017-11-24T10:07:16.755Z,365.63
2017-11-24T10:08:16.758Z,410.63
2017-11-24T10:09:16.786Z,427.50
2017-11-24T10:10:16.802Z,450.00
2017-11-24T10:11:16.844Z,472.50
2017-11-24T10:12:16.844Z,455.63
2017-11-24T10:13:16.864Z,444.38
2017-11-24T10:14:16.892Z,438.75
2017-11-24T10:15:16.908Z,427.50
2017-11-24T10:16:16.936Z,399.38
2017-11-24T10:17:16.951Z,410.63
2017-11-24T10:18:17.230Z,410.63
2017-11-24T10:19:16.999Z,405.00
2017-11-24T10:20:17.021Z,405.00
2017-11-24T10:21:17.036Z,433.13
2017-11-24T10:22:17.064Z,483.75
2017-11-24T10:23:17.084Z,556.88
2017-11-24T10:24:17.090Z,551.25
2017-11-24T10:25:17.116Z,523.13
2017-11-24T10:26:17.130Z,500.63
2017-11-24T10:27:17.158Z,461.25
2017-11-24T10:28:17.173Z,410.63
2017-11-24T10:29:17.213Z,371.25
2017-11-24T10:30:17.226Z,371.25
2017-11-24T10:31:17.244Z,393.75
2017-11-24T10:32:17.265Z,438.75
2017-11-24T10:33:17.287Z,450.00
2017-11-24T10:34:17.307Z,500.63
2017-11-24T10:35:17.329Z,511.88
2017-11-24T10:36:17.343Z,489.38
2017-11-24T10:37:17.366Z,455.63
2017-11-24T10:38:17.386Z,416.25
2017-11-24T10:39:17.408Z,399.38
2017-11-24T10:40:17.429Z,405.00
2017-11-24T10:41:17.457Z,410.63
2017-11-24T10:42:17.472Z,433.13
2017-11-24T10:43:17.506Z,438.75
2017-11-24T10:44:17.521Z,393.75
2017-11-24T10:45:17.542Z,337.50
2017-11-24T10:46:17.563Z,292.50
2017-11-24T10:47:17.578Z,270.00
2017-11-24T10:48:17.609Z,270.00
2017-11-24T10:49:17.622Z,270.00
2017-11-24T10:50:17.650Z,281.25
2017-11-24T10:51:17.663Z,286.88
2017-11-24T10:52:17.686Z,315.00
2017-11-24T10:53:17.707Z,292.50
2017-11-24T10:54:17.727Z,315.00
2017-11-24T10:55:17.750Z,320.63
2017-11-24T10:56:17.779Z,292.50
2017-11-24T10:57:17.799Z,258.75
2017-11-24T10:58:18.065Z,247.50
2017-11-24T10:59:17.840Z,253.13
2017-11-24T11:00:17.868Z,270.00
2017-11-24T11:01:17.895Z,286.88
2017-11-24T11:02:17.906Z,309.38
2017-11-24T11:03:17.926Z,326.25
2017-11-24T11:04:17.949Z,348.75
2017-11-24T11:05:17.965Z,360.00
2017-11-24T11:06:17.985Z,365.63
2017-11-24T11:07:18.006Z,365.63
2017-11-24T11:08:18.029Z,382.50
2017-11-24T11:09:18.050Z,371.25
2017-11-24T11:10:18.078Z,382.50
2017-11-24T11:11:18.103Z,376.88
2017-11-24T11:12:18.123Z,371.25
2017-11-24T11:13:18.141Z,410.63
2017-11-24T11:14:18.158Z,399.38
2017-11-24T11:15:18.178Z,371.25
2017-11-24T11:16:18.213Z,337.50
2017-11-24T11:17:18.229Z,303.75
2017-11-24T11:18:18.492Z,298.13
2017-11-24T11:19:18.274Z,292.50
2017-11-24T11:20:18.291Z,270.00
2017-11-24T11:21:18.311Z,275.63
2017-11-24T11:22:18.328Z,241.88
2017-11-24T11:23:18.356Z,236.25
2017-11-24T11:24:18.377Z,303.75
2017-11-24T11:25:18.398Z,348.75
2017-11-24T11:26:18.413Z,343.13
2017-11-24T11:27:18.434Z,331.88
2017-11-24T11:28:18.456Z,292.50
2017-11-24T11:29:18.485Z,298.13
2017-11-24T11:30:18.517Z,298.13
2017-11-24T11:31:18.519Z,303.75
2017-11-24T11:32:18.541Z,360.00
2017-11-24T11:33:18.569Z,405.00
2017-11-24T11:34:18.585Z,405.00
2017-11-24T11:35:18.614Z,382.50
2017-11-24T11:36:18.626Z,343.13
2017-11-24T11:37:18.661Z,365.63
2017-11-24T11:38:18.927Z,326.25
2017-11-24T11:39:18.711Z,343.13
2017-11-24T11:40:18.719Z,354.38
2017-11-24T11:41:18.734Z,326.25
2017-11-24T11:42:18.762Z,292.50
2017-11-24T11:43:18.783Z,241.88
2017-11-24T11:44:18.801Z,219.38
2017-11-24T11:45:18.820Z,236.25
2017-11-24T11:46:18.847Z,275.63
2017-11-24T11:47:18.862Z,292.50
2017-11-24T11:48:18.890Z,298.13
2017-11-24T11:49:18.912Z,326.25
2017-11-24T11:50:18.926Z,360.00
2017-11-24T11:51:18.947Z,320.63
2017-11-24T11:52:18.975Z,303.75
2017-11-24T11:53:18.992Z,309.38
2017-11-24T11:54:19.023Z,253.13
2017-11-24T11:55:19.040Z,258.75
2017-11-24T11:56:19.053Z,253.13
2017-11-24T11:57:19.076Z,208.13
2017-11-24T11:58:19.102Z,208.13
2017-11-24T11:59:19.119Z,208.13
2017-11-24T12:00:19.150Z,185.63
2017-11-24T12:01:19.168Z,146.25
2017-11-24T12:02:19.191Z,146.25
2017-11-24T12:03:19.210Z,123.75
2017-11-24T12:04:19.227Z,95.63
2017-11-24T12:05:19.257Z,101.25
2017-11-24T12:06:19.272Z,118.13
2017-11-24T12:07:19.289Z,123.75
2017-11-24T12:08:19.318Z,129.38
2017-11-24T12:09:19.333Z,146.25
2017-11-24T12:10:19.355Z,163.13
2017-11-24T12:11:19.382Z,174.38
2017-11-24T12:12:19.398Z,163.13
2017-11-24T12:13:19.417Z,151.88
2017-11-24T12:14:19.446Z,180.00
2017-11-24T12:15:19.460Z,180.00
2017-11-24T12:16:19.490Z,163.13
2017-11-24T12:17:19.505Z,123.75
2017-11-24T12:18:19.532Z,101.25
2017-11-24T12:19:19.559Z,118.13
2017-11-24T12:20:19.575Z,129.38
2017-11-24T12:21:19.590Z,163.13
2017-11-24T12:22:19.612Z,253.13
2017-11-24T12:23:19.639Z,230.63
2017-11-24T12:24:19.660Z,163.13
2017-11-24T12:25:19.680Z,123.75
2017-11-24T12:26:19.703Z,90.00
2017-11-24T12:27:19.724Z,73.13
2017-11-24T12:28:19.741Z,78.75
2017-11-24T12:29:19.761Z,90.00
2017-11-24T12:30:19.784Z,84.38
2017-11-24T12:31:19.803Z,73.13
2017-11-24T12:32:19.831Z,61.88
2017-11-24T12:33:19.853Z,56.25
2017-11-24T12:34:19.874Z,61.88
2017-11-24T12:35:19.889Z,67.50
2017-11-24T12:36:19.909Z,73.13
2017-11-24T12:37:19.932Z,73.13
2017-11-24T12:38:20.203Z,67.50
2017-11-24T12:39:19.975Z,61.88
2017-11-24T12:40:19.996Z,61.88
2017-11-24T12:41:20.024Z,50.63
2017-11-24T12:42:20.039Z,39.38
2017-11-24T12:43:20.066Z,45.00
2017-11-24T12:44:20.082Z,50.63
2017-11-24T12:45:20.108Z,50.63
2017-11-24T12:46:20.129Z,50.63
2017-11-24T12:47:20.146Z,56.25
2017-11-24T12:48:20.167Z,56.25
2017-11-24T12:49:20.194Z,45.00
2017-11-24T12:50:20.211Z,39.38
2017-11-24T12:51:20.230Z,56.25
2017-11-24T12:52:20.253Z,90.00
2017-11-24T12:53:20.524Z,112.50
2017-11-24T12:54:20.285Z,84.38
2017-11-24T12:55:20.304Z,118.13
2017-11-24T12:56:20.333Z,135.00